sensor_id;sensor_type;location;lat;lon;timestamp;pressure;altitude;pressure_sealevel;temperature;humidity
34237;BME280;20501;45.956;13.632;2023-05-24T00:01:34;100346.78;;;18.27;69.22
34237;BME280;20501;45.956;13.632;2023-05-24T00:04:02;100341.59;;;18.32;68.45
34237;BME280;20501;45.956;13.632;2023-05-24T00:06:28;100342.19;;;18.28;68.95
34237;BME280;20501;45.956;13.632;2023-05-24T00:08:54;100336.66;;;18.21;69.38
34237;BME280;20501;45.956;13.632;2023-05-24T00:11:20;100333.00;;;18.14;69.42
34237;BME280;20501;45.956;13.632;2023-05-24T00:13:47;100341.13;;;18.29;68.92
34237;BME280;20501;45.956;13.632;2023-05-24T00:16:12;100339.88;;;18.31;68.70
34237;BME280;20501;45.956;13.632;2023-05-24T00:18:38;100343.66;;;18.30;68.63
34237;BME280;20501;45.956;13.632;2023-05-24T00:21:05;100340.13;;;18.36;68.34
34237;BME280;20501;45.956;13.632;2023-05-24T00:23:31;100341.47;;;18.19;69.05
34237;BME280;20501;45.956;13.632;2023-05-24T00:25:56;100341.25;;;18.20;68.94
34237;BME280;20501;45.956;13.632;2023-05-24T00:28:21;100341.53;;;18.25;68.86
34237;BME280;20501;45.956;13.632;2023-05-24T00:30:47;100340.66;;;18.25;69.00
34237;BME280;20501;45.956;13.632;2023-05-24T00:33:12;100338.41;;;18.29;68.25
34237;BME280;20501;45.956;13.632;2023-05-24T00:35:38;100342.34;;;18.26;68.18
34237;BME280;20501;45.956;13.632;2023-05-24T00:38:03;100344.69;;;18.29;68.41
34237;BME280;20501;45.956;13.632;2023-05-24T00:40:28;100351.66;;;18.32;68.45
34237;BME280;20501;45.956;13.632;2023-05-24T00:42:54;100353.06;;;18.21;69.04
34237;BME280;20501;45.956;13.632;2023-05-24T00:45:19;100350.09;;;18.22;68.79
34237;BME280;20501;45.956;13.632;2023-05-24T00:47:45;100351.94;;;18.15;69.02
34237;BME280;20501;45.956;13.632;2023-05-24T00:50:11;100351.59;;;18.25;68.51
34237;BME280;20501;45.956;13.632;2023-05-24T00:52:39;100351.72;;;18.17;68.72
34237;BME280;20501;45.956;13.632;2023-05-24T00:55:06;100349.50;;;18.27;68.43
34237;BME280;20501;45.956;13.632;2023-05-24T00:57:33;100349.94;;;18.24;68.51
34237;BME280;20501;45.956;13.632;2023-05-24T01:00:00;100352.91;;;18.29;68.06
34237;BME280;20501;45.956;13.632;2023-05-24T01:02:26;100353.13;;;18.28;68.28
34237;BME280;20501;45.956;13.632;2023-05-24T01:04:52;100351.16;;;18.21;68.15
34237;BME280;20501;45.956;13.632;2023-05-24T01:07:21;100359.09;;;18.16;68.84
34237;BME280;20501;45.956;13.632;2023-05-24T01:16:10;100364.22;;;18.04;69.25
34237;BME280;20501;45.956;13.632;2023-05-24T01:19:04;100361.03;;;18.01;69.40
34237;BME280;20501;45.956;13.632;2023-05-24T01:21:58;100354.91;;;17.99;69.48
34237;BME280;20501;45.956;13.632;2023-05-24T01:24:43;100352.22;;;17.84;70.25
34237;BME280;20501;45.956;13.632;2023-05-24T01:27:15;100360.41;;;17.84;70.29
34237;BME280;20501;45.956;13.632;2023-05-24T01:29:41;100360.91;;;17.72;71.11
34237;BME280;20501;45.956;13.632;2023-05-24T01:32:07;100368.72;;;17.75;70.97
34237;BME280;20501;45.956;13.632;2023-05-24T01:34:33;100360.34;;;17.77;71.11
34237;BME280;20501;45.956;13.632;2023-05-24T01:36:58;100366.56;;;17.71;71.38
34237;BME280;20501;45.956;13.632;2023-05-24T01:39:26;100362.03;;;17.78;71.13
34237;BME280;20501;45.956;13.632;2023-05-24T01:42:08;100361.81;;;17.94;70.22
34237;BME280;20501;45.956;13.632;2023-05-24T01:49:49;100378.09;;;18.03;69.59
34237;BME280;20501;45.956;13.632;2023-05-24T01:52:16;100375.06;;;18.13;69.32
34237;BME280;20501;45.956;13.632;2023-05-24T01:54:47;100374.97;;;18.06;69.66
34237;BME280;20501;45.956;13.632;2023-05-24T01:57:15;100368.97;;;17.95;70.03
34237;BME280;20501;45.956;13.632;2023-05-24T01:59:43;100369.78;;;17.96;69.75
34237;BME280;20501;45.956;13.632;2023-05-24T02:02:10;100370.34;;;18.06;69.38
34237;BME280;20501;45.956;13.632;2023-05-24T02:04:35;100372.03;;;18.07;69.00
34237;BME280;20501;45.956;13.632;2023-05-24T02:07:01;100372.84;;;18.01;69.58
34237;BME280;20501;45.956;13.632;2023-05-24T02:09:26;100378.09;;;18.03;69.09
34237;BME280;20501;45.956;13.632;2023-05-24T02:11:52;100380.06;;;17.94;69.70
34237;BME280;20501;45.956;13.632;2023-05-24T02:14:17;100380.66;;;17.89;70.06
34237;BME280;20501;45.956;13.632;2023-05-24T02:16:44;100381.22;;;18.00;69.80
34237;BME280;20501;45.956;13.632;2023-05-24T02:19:11;100374.34;;;17.89;70.36
34237;BME280;20501;45.956;13.632;2023-05-24T02:21:37;100372.38;;;17.98;69.29
34237;BME280;20501;45.956;13.632;2023-05-24T02:24:03;100369.91;;;17.88;70.33
34237;BME280;20501;45.956;13.632;2023-05-24T02:26:28;100376.59;;;18.00;69.46
34237;BME280;20501;45.956;13.632;2023-05-24T02:28:54;100371.97;;;17.64;70.93
34237;BME280;20501;45.956;13.632;2023-05-24T02:31:19;100378.91;;;17.67;70.94
34237;BME280;20501;45.956;13.632;2023-05-24T02:33:45;100385.91;;;17.69;71.01
34237;BME280;20501;45.956;13.632;2023-05-24T02:36:11;100380.69;;;17.74;71.08
34237;BME280;20501;45.956;13.632;2023-05-24T02:38:37;100380.19;;;17.86;70.43
34237;BME280;20501;45.956;13.632;2023-05-24T02:41:03;100376.19;;;17.82;70.63
34237;BME280;20501;45.956;13.632;2023-05-24T02:43:29;100376.34;;;17.80;70.96
34237;BME280;20501;45.956;13.632;2023-05-24T02:45:54;100373.94;;;17.70;71.13
34237;BME280;20501;45.956;13.632;2023-05-24T02:48:20;100376.34;;;17.80;70.55
34237;BME280;20501;45.956;13.632;2023-05-24T02:50:45;100376.03;;;17.90;69.96
34237;BME280;20501;45.956;13.632;2023-05-24T02:53:11;100369.00;;;17.81;70.30
34237;BME280;20501;45.956;13.632;2023-05-24T02:55:36;100375.34;;;17.66;71.08
34237;BME280;20501;45.956;13.632;2023-05-24T02:58:01;100379.03;;;17.58;71.25
34237;BME280;20501;45.956;13.632;2023-05-24T03:00:27;100377.00;;;17.82;70.71
34237;BME280;20501;45.956;13.632;2023-05-24T03:02:52;100378.03;;;17.81;70.53
34237;BME280;20501;45.956;13.632;2023-05-24T03:05:19;100383.25;;;17.76;71.02
34237;BME280;20501;45.956;13.632;2023-05-24T03:07:45;100387.50;;;17.63;71.53
34237;BME280;20501;45.956;13.632;2023-05-24T03:10:10;100379.25;;;17.57;72.01
34237;BME280;20501;45.956;13.632;2023-05-24T03:12:36;100379.78;;;17.67;72.07
34237;BME280;20501;45.956;13.632;2023-05-24T03:15:01;100385.06;;;17.54;73.29
34237;BME280;20501;45.956;13.632;2023-05-24T03:17:27;100386.38;;;17.73;72.91
34237;BME280;20501;45.956;13.632;2023-05-24T03:19:52;100390.13;;;17.72;74.26
34237;BME280;20501;45.956;13.632;2023-05-24T03:22:18;100393.84;;;17.86;72.92
34237;BME280;20501;45.956;13.632;2023-05-24T03:24:43;100386.56;;;17.93;74.42
34237;BME280;20501;45.956;13.632;2023-05-24T03:27:10;100384.41;;;17.88;75.54
34237;BME280;20501;45.956;13.632;2023-05-24T03:29:36;100388.31;;;17.79;76.09
34237;BME280;20501;45.956;13.632;2023-05-24T03:32:01;100388.50;;;17.77;74.95
34237;BME280;20501;45.956;13.632;2023-05-24T03:34:26;100387.44;;;17.57;77.10
34237;BME280;20501;45.956;13.632;2023-05-24T03:36:52;100389.13;;;17.58;74.81
34237;BME280;20501;45.956;13.632;2023-05-24T03:39:17;100390.88;;;17.66;74.92
34237;BME280;20501;45.956;13.632;2023-05-24T03:41:43;100392.53;;;17.30;77.20
34237;BME280;20501;45.956;13.632;2023-05-24T03:44:08;100392.06;;;17.26;78.35
34237;BME280;20501;45.956;13.632;2023-05-24T03:46:34;100395.19;;;17.38;79.78
34237;BME280;20501;45.956;13.632;2023-05-24T03:49:00;100398.84;;;17.45;75.92
34237;BME280;20501;45.956;13.632;2023-05-24T03:51:25;100390.25;;;17.63;75.87
34237;BME280;20501;45.956;13.632;2023-05-24T03:53:57;100383.59;;;17.36;78.24
34237;BME280;20501;45.956;13.632;2023-05-24T03:56:23;100381.81;;;17.13;80.49
34237;BME280;20501;45.956;13.632;2023-05-24T03:58:48;100391.41;;;16.94;80.67
34237;BME280;20501;45.956;13.632;2023-05-24T04:01:16;100389.19;;;16.90;80.49
34237;BME280;20501;45.956;13.632;2023-05-24T04:03:41;100388.31;;;17.12;79.95
34237;BME280;20501;45.956;13.632;2023-05-24T04:06:10;100390.84;;;17.44;77.35
34237;BME280;20501;45.956;13.632;2023-05-24T04:08:36;100385.47;;;17.21;80.08
34237;BME280;20501;45.956;13.632;2023-05-24T04:11:01;100393.00;;;17.33;80.41
34237;BME280;20501;45.956;13.632;2023-05-24T04:13:26;100403.25;;;17.46;77.65
34237;BME280;20501;45.956;13.632;2023-05-24T04:15:52;100403.16;;;17.55;76.99
34237;BME280;20501;45.956;13.632;2023-05-24T04:18:17;100407.41;;;17.27;81.54
34237;BME280;20501;45.956;13.632;2023-05-24T04:20:43;100419.25;;;17.20;81.51
34237;BME280;20501;45.956;13.632;2023-05-24T04:23:08;100413.63;;;17.36;78.79
34237;BME280;20501;45.956;13.632;2023-05-24T04:25:34;100409.47;;;17.40;77.19
34237;BME280;20501;45.956;13.632;2023-05-24T04:28:00;100410.03;;;17.06;82.52
34237;BME280;20501;45.956;13.632;2023-05-24T04:30:27;100411.94;;;16.82;82.86
34237;BME280;20501;45.956;13.632;2023-05-24T04:32:57;100406.84;;;17.02;80.50
34237;BME280;20501;45.956;13.632;2023-05-24T04:35:23;100406.19;;;17.15;79.27
34237;BME280;20501;45.956;13.632;2023-05-24T04:37:50;100407.16;;;17.22;79.75
34237;BME280;20501;45.956;13.632;2023-05-24T04:40:16;100402.06;;;17.19;80.58
34237;BME280;20501;45.956;13.632;2023-05-24T04:42:41;100413.44;;;17.08;80.81
34237;BME280;20501;45.956;13.632;2023-05-24T04:45:07;100408.75;;;16.93;82.41
34237;BME280;20501;45.956;13.632;2023-05-24T04:47:33;100413.69;;;16.98;82.73
34237;BME280;20501;45.956;13.632;2023-05-24T04:49:58;100413.81;;;17.20;79.75
34237;BME280;20501;45.956;13.632;2023-05-24T04:52:24;100416.72;;;17.03;81.55
34237;BME280;20501;45.956;13.632;2023-05-24T04:54:49;100425.88;;;16.72;84.03
34237;BME280;20501;45.956;13.632;2023-05-24T04:57:15;100421.22;;;16.58;84.02
34237;BME280;20501;45.956;13.632;2023-05-24T04:59:41;100420.47;;;16.64;85.74
34237;BME280;20501;45.956;13.632;2023-05-24T05:02:06;100413.69;;;16.98;80.84
34237;BME280;20501;45.956;13.632;2023-05-24T05:04:32;100417.59;;;16.80;85.00
34237;BME280;20501;45.956;13.632;2023-05-24T05:06:57;100427.41;;;16.90;84.05
34237;BME280;20501;45.956;13.632;2023-05-24T05:09:23;100425.75;;;17.04;83.09
34237;BME280;20501;45.956;13.632;2023-05-24T05:11:49;100427.16;;;16.99;83.08
34237;BME280;20501;45.956;13.632;2023-05-24T05:14:14;100433.81;;;16.97;82.57
34237;BME280;20501;45.956;13.632;2023-05-24T05:16:40;100431.75;;;16.99;82.65
34237;BME280;20501;45.956;13.632;2023-05-24T05:19:06;100428.78;;;16.85;81.87
34237;BME280;20501;45.956;13.632;2023-05-24T05:21:32;100421.00;;;16.82;84.91
34237;BME280;20501;45.956;13.632;2023-05-24T05:23:59;100431.16;;;16.89;83.56
34237;BME280;20501;45.956;13.632;2023-05-24T05:26:28;100443.28;;;16.86;84.52
34237;BME280;20501;45.956;13.632;2023-05-24T05:28:54;100472.41;;;16.70;85.18
34237;BME280;20501;45.956;13.632;2023-05-24T05:31:20;100477.91;;;16.62;85.21
34237;BME280;20501;45.956;13.632;2023-05-24T05:33:46;100480.59;;;16.94;84.39
34237;BME280;20501;45.956;13.632;2023-05-24T05:36:11;100489.88;;;16.84;81.23
34237;BME280;20501;45.956;13.632;2023-05-24T05:38:36;100498.75;;;16.78;84.59
34237;BME280;20501;45.956;13.632;2023-05-24T05:41:02;100503.63;;;16.45;90.54
34237;BME280;20501;45.956;13.632;2023-05-24T05:43:27;100514.50;;;16.99;84.50
34237;BME280;20501;45.956;13.632;2023-05-24T05:45:54;100523.38;;;17.16;80.53
34237;BME280;20501;45.956;13.632;2023-05-24T05:48:20;100515.03;;;16.95;89.06
34237;BME280;20501;45.956;13.632;2023-05-24T05:50:45;100514.41;;;16.84;89.30
34237;BME280;20501;45.956;13.632;2023-05-24T05:53:10;100509.44;;;16.65;91.13
34237;BME280;20501;45.956;13.632;2023-05-24T05:55:36;100506.03;;;16.86;88.75
34237;BME280;20501;45.956;13.632;2023-05-24T05:58:01;100496.72;;;16.80;86.05
34237;BME280;20501;45.956;13.632;2023-05-24T06:00:27;100494.09;;;17.10;81.54
34237;BME280;20501;45.956;13.632;2023-05-24T06:02:52;100496.50;;;16.82;86.59
34237;BME280;20501;45.956;13.632;2023-05-24T06:05:18;100498.03;;;16.61;87.87
34237;BME280;20501;45.956;13.632;2023-05-24T06:07:43;100507.13;;;16.53;89.13
34237;BME280;20501;45.956;13.632;2023-05-24T06:10:10;100508.69;;;16.48;90.39
34237;BME280;20501;45.956;13.632;2023-05-24T06:12:35;100508.53;;;16.49;91.83
34237;BME280;20501;45.956;13.632;2023-05-24T06:15:02;100508.78;;;16.63;91.09
34237;BME280;20501;45.956;13.632;2023-05-24T06:17:30;100509.22;;;16.51;89.68
34237;BME280;20501;45.956;13.632;2023-05-24T06:19:55;100499.19;;;16.67;88.40
34237;BME280;20501;45.956;13.632;2023-05-24T06:22:21;100500.03;;;16.91;86.77
34237;BME280;20501;45.956;13.632;2023-05-24T06:24:47;100498.22;;;16.83;88.77
34237;BME280;20501;45.956;13.632;2023-05-24T06:27:13;100485.50;;;16.98;85.77
34237;BME280;20501;45.956;13.632;2023-05-24T06:29:39;100497.38;;;16.82;87.72
34237;BME280;20501;45.956;13.632;2023-05-24T06:32:05;100493.94;;;16.65;89.18
34237;BME280;20501;45.956;13.632;2023-05-24T06:34:30;100492.09;;;16.81;86.61
34237;BME280;20501;45.956;13.632;2023-05-24T06:36:55;100487.59;;;16.88;87.22
34237;BME280;20501;45.956;13.632;2023-05-24T06:39:22;100496.22;;;16.77;88.17
34237;BME280;20501;45.956;13.632;2023-05-24T06:41:49;100490.00;;;17.06;83.41
34237;BME280;20501;45.956;13.632;2023-05-24T06:44:15;100489.44;;;16.96;86.63
34237;BME280;20501;45.956;13.632;2023-05-24T06:46:40;100499.66;;;16.70;91.00
34237;BME280;20501;45.956;13.632;2023-05-24T06:49:06;100502.25;;;16.72;91.56
34237;BME280;20501;45.956;13.632;2023-05-24T06:51:32;100495.25;;;16.69;90.53
34237;BME280;20501;45.956;13.632;2023-05-24T06:53:58;100502.53;;;16.77;88.14
34237;BME280;20501;45.956;13.632;2023-05-24T06:56:24;100508.44;;;16.81;87.29
34237;BME280;20501;45.956;13.632;2023-05-24T06:58:50;100503.19;;;17.02;84.38
34237;BME280;20501;45.956;13.632;2023-05-24T07:01:16;100506.31;;;16.99;85.72
34237;BME280;20501;45.956;13.632;2023-05-24T07:03:43;100511.97;;;16.90;87.79
34237;BME280;20501;45.956;13.632;2023-05-24T07:06:08;100513.91;;;16.81;89.71
34237;BME280;20501;45.956;13.632;2023-05-24T07:08:38;100509.88;;;16.77;89.63
34237;BME280;20501;45.956;13.632;2023-05-24T07:11:04;100513.16;;;16.72;92.22
34237;BME280;20501;45.956;13.632;2023-05-24T07:13:30;100514.50;;;16.91;89.98
34237;BME280;20501;45.956;13.632;2023-05-24T07:15:56;100521.09;;;17.05;88.17
34237;BME280;20501;45.956;13.632;2023-05-24T07:18:21;100524.53;;;16.99;88.58
34237;BME280;20501;45.956;13.632;2023-05-24T07:20:47;100523.72;;;16.90;91.03
34237;BME280;20501;45.956;13.632;2023-05-24T07:23:12;100526.28;;;16.92;86.78
34237;BME280;20501;45.956;13.632;2023-05-24T07:25:37;100526.94;;;17.17;84.05
34237;BME280;20501;45.956;13.632;2023-05-24T07:28:03;100526.09;;;16.93;89.69
34237;BME280;20501;45.956;13.632;2023-05-24T07:30:28;100528.78;;;17.01;89.83
34237;BME280;20501;45.956;13.632;2023-05-24T07:32:54;100520.34;;;17.11;88.58
34237;BME280;20501;45.956;13.632;2023-05-24T07:35:20;100526.16;;;17.08;88.51
34237;BME280;20501;45.956;13.632;2023-05-24T07:37:48;100526.63;;;17.12;90.15
34237;BME280;20501;45.956;13.632;2023-05-24T07:40:13;100520.47;;;17.18;87.65
34237;BME280;20501;45.956;13.632;2023-05-24T07:42:39;100526.50;;;17.28;86.98
34237;BME280;20501;45.956;13.632;2023-05-24T07:45:06;100527.13;;;17.15;92.23
34237;BME280;20501;45.956;13.632;2023-05-24T07:47:31;100515.00;;;17.18;91.70
34237;BME280;20501;45.956;13.632;2023-05-24T07:49:57;100515.66;;;17.20;91.82
34237;BME280;20501;45.956;13.632;2023-05-24T07:52:22;100508.31;;;17.21;91.23
34237;BME280;20501;45.956;13.632;2023-05-24T07:54:48;100510.38;;;17.33;90.05
34237;BME280;20501;45.956;13.632;2023-05-24T07:57:14;100503.59;;;17.14;91.86
34237;BME280;20501;45.956;13.632;2023-05-24T07:59:39;100512.28;;;17.33;85.66
34237;BME280;20501;45.956;13.632;2023-05-24T08:02:05;100507.97;;;17.39;88.24
34237;BME280;20501;45.956;13.632;2023-05-24T08:04:31;100506.72;;;17.26;90.25
34237;BME280;20501;45.956;13.632;2023-05-24T08:06:58;100507.28;;;17.37;85.30
34237;BME280;20501;45.956;13.632;2023-05-24T08:09:26;100511.16;;;17.42;86.83
34237;BME280;20501;45.956;13.632;2023-05-24T08:11:52;100515.47;;;17.22;89.10
34237;BME280;20501;45.956;13.632;2023-05-24T08:14:17;100518.16;;;17.07;92.29
34237;BME280;20501;45.956;13.632;2023-05-24T08:16:42;100511.63;;;17.31;88.93
34237;BME280;20501;45.956;13.632;2023-05-24T08:19:08;100520.00;;;17.29;94.32
34237;BME280;20501;45.956;13.632;2023-05-24T08:21:33;100521.78;;;17.22;91.92
34237;BME280;20501;45.956;13.632;2023-05-24T08:23:59;100525.28;;;17.31;92.24
34237;BME280;20501;45.956;13.632;2023-05-24T08:26:25;100523.59;;;17.45;91.72
34237;BME280;20501;45.956;13.632;2023-05-24T08:28:51;100523.06;;;17.64;89.05
34237;BME280;20501;45.956;13.632;2023-05-24T08:31:17;100534.81;;;17.65;85.69
34237;BME280;20501;45.956;13.632;2023-05-24T08:33:42;100546.66;;;17.57;88.89
34237;BME280;20501;45.956;13.632;2023-05-24T08:36:08;100548.75;;;17.55;87.57
34237;BME280;20501;45.956;13.632;2023-05-24T08:38:33;100547.91;;;17.55;90.57
34237;BME280;20501;45.956;13.632;2023-05-24T08:40:59;100560.22;;;17.51;89.76
34237;BME280;20501;45.956;13.632;2023-05-24T08:43:28;100562.22;;;17.57;88.45
34237;BME280;20501;45.956;13.632;2023-05-24T08:45:56;100567.69;;;17.57;90.33
34237;BME280;20501;45.956;13.632;2023-05-24T08:48:24;100582.28;;;17.64;91.99
34237;BME280;20501;45.956;13.632;2023-05-24T08:50:51;100578.31;;;17.67;86.63
34237;BME280;20501;45.956;13.632;2023-05-24T08:53:17;100574.28;;;17.62;85.63
34237;BME280;20501;45.956;13.632;2023-05-24T08:55:43;100580.69;;;17.70;86.77
34237;BME280;20501;45.956;13.632;2023-05-24T08:58:09;100582.75;;;17.53;92.55
34237;BME280;20501;45.956;13.632;2023-05-24T09:00:35;100582.00;;;17.59;93.40
34237;BME280;20501;45.956;13.632;2023-05-24T09:03:01;100588.88;;;17.70;93.16
34237;BME280;20501;45.956;13.632;2023-05-24T09:05:27;100586.72;;;17.80;93.97
34237;BME280;20501;45.956;13.632;2023-05-24T09:07:54;100588.22;;;17.83;95.23
34237;BME280;20501;45.956;13.632;2023-05-24T09:10:21;100593.22;;;17.94;93.13
34237;BME280;20501;45.956;13.632;2023-05-24T09:12:52;100581.97;;;17.97;90.71
34237;BME280;20501;45.956;13.632;2023-05-24T09:15:19;100587.50;;;18.04;89.65
34237;BME280;20501;45.956;13.632;2023-05-24T09:17:45;100582.59;;;18.14;89.61
34237;BME280;20501;45.956;13.632;2023-05-24T09:20:11;100580.44;;;18.09;93.78
34237;BME280;20501;45.956;13.632;2023-05-24T09:22:41;100571.38;;;18.09;90.74
34237;BME280;20501;45.956;13.632;2023-05-24T09:25:09;100564.25;;;18.08;89.54
34237;BME280;20501;45.956;13.632;2023-05-24T09:27:35;100562.41;;;18.30;90.22
34237;BME280;20501;45.956;13.632;2023-05-24T09:30:02;100560.34;;;18.32;90.49
34237;BME280;20501;45.956;13.632;2023-05-24T09:32:30;100568.53;;;18.32;86.47
34237;BME280;20501;45.956;13.632;2023-05-24T09:34:57;100564.94;;;18.32;85.09
34237;BME280;20501;45.956;13.632;2023-05-24T09:37:24;100569.50;;;18.61;84.65
34237;BME280;20501;45.956;13.632;2023-05-24T09:39:52;100566.97;;;18.60;84.90
34237;BME280;20501;45.956;13.632;2023-05-24T09:42:19;100561.78;;;18.50;88.79
34237;BME280;20501;45.956;13.632;2023-05-24T09:44:57;100563.13;;;18.76;84.73
34237;BME280;20501;45.956;13.632;2023-05-24T09:47:30;100561.22;;;18.76;82.18
34237;BME280;20501;45.956;13.632;2023-05-24T09:49:58;100554.84;;;18.91;81.22
34237;BME280;20501;45.956;13.632;2023-05-24T09:52:23;100560.44;;;18.97;85.81
34237;BME280;20501;45.956;13.632;2023-05-24T09:54:48;100553.94;;;18.83;84.66
34237;BME280;20501;45.956;13.632;2023-05-24T09:57:17;100547.63;;;18.83;85.77
34237;BME280;20501;45.956;13.632;2023-05-24T09:59:46;100536.81;;;19.18;83.82
34237;BME280;20501;45.956;13.632;2023-05-24T10:02:12;100536.06;;;19.31;80.81
34237;BME280;20501;45.956;13.632;2023-05-24T10:04:38;100529.88;;;19.51;75.17
34237;BME280;20501;45.956;13.632;2023-05-24T10:07:07;100525.44;;;19.49;77.58
34237;BME280;20501;45.956;13.632;2023-05-24T10:09:34;100523.41;;;19.58;77.39
34237;BME280;20501;45.956;13.632;2023-05-24T10:12:03;100513.00;;;19.47;76.48
34237;BME280;20501;45.956;13.632;2023-05-24T10:14:33;100504.59;;;19.55;79.42
34237;BME280;20501;45.956;13.632;2023-05-24T10:17:01;100513.91;;;19.54;77.41
34237;BME280;20501;45.956;13.632;2023-05-24T10:19:29;100511.16;;;19.54;78.03
34237;BME280;20501;45.956;13.632;2023-05-24T10:21:55;100506.78;;;19.67;78.37
34237;BME280;20501;45.956;13.632;2023-05-24T10:24:25;100510.38;;;19.32;78.66
34237;BME280;20501;45.956;13.632;2023-05-24T10:26:53;100499.13;;;19.48;75.72
34237;BME280;20501;45.956;13.632;2023-05-24T10:32:19;100487.59;;;19.67;78.78
34237;BME280;20501;45.956;13.632;2023-05-24T10:34:45;100485.91;;;19.65;74.65
34237;BME280;20501;45.956;13.632;2023-05-24T10:37:11;100477.06;;;20.05;73.18
34237;BME280;20501;45.956;13.632;2023-05-24T10:39:37;100482.28;;;19.93;72.82
34237;BME280;20501;45.956;13.632;2023-05-24T10:42:03;100478.19;;;19.83;72.93
34237;BME280;20501;45.956;13.632;2023-05-24T10:44:30;100473.09;;;19.73;73.48
34237;BME280;20501;45.956;13.632;2023-05-24T10:49:35;100468.84;;;20.12;71.43
34237;BME280;20501;45.956;13.632;2023-05-24T10:52:05;100473.09;;;20.08;72.65
34237;BME280;20501;45.956;13.632;2023-05-24T10:54:31;100466.13;;;20.19;71.75
34237;BME280;20501;45.956;13.632;2023-05-24T10:57:00;100453.75;;;19.81;71.73
34237;BME280;20501;45.956;13.632;2023-05-24T10:59:34;100459.06;;;20.51;70.19
34237;BME280;20501;45.956;13.632;2023-05-24T11:02:08;100458.88;;;20.80;67.24
34237;BME280;20501;45.956;13.632;2023-05-24T11:04:41;100454.88;;;20.82;66.87
34237;BME280;20501;45.956;13.632;2023-05-24T11:07:12;100448.94;;;21.06;64.16
34237;BME280;20501;45.956;13.632;2023-05-24T11:09:39;100444.66;;;21.37;64.98
34237;BME280;20501;45.956;13.632;2023-05-24T11:12:18;100439.81;;;21.25;63.60
34237;BME280;20501;45.956;13.632;2023-05-24T11:14:52;100439.66;;;21.13;65.65
34237;BME280;20501;45.956;13.632;2023-05-24T11:17:19;100441.06;;;21.43;64.95
34237;BME280;20501;45.956;13.632;2023-05-24T11:19:53;100435.78;;;21.41;62.04
34237;BME280;20501;45.956;13.632;2023-05-24T11:22:20;100437.50;;;21.29;62.31
34237;BME280;20501;45.956;13.632;2023-05-24T11:24:46;100438.75;;;21.40;62.44
34237;BME280;20501;45.956;13.632;2023-05-24T11:27:12;100427.28;;;21.49;62.67
34237;BME280;20501;45.956;13.632;2023-05-24T11:29:42;100437.03;;;21.59;63.80
34237;BME280;20501;45.956;13.632;2023-05-24T11:32:09;100434.41;;;21.77;65.61
34237;BME280;20501;45.956;13.632;2023-05-24T11:34:35;100432.09;;;21.74;64.21
34237;BME280;20501;45.956;13.632;2023-05-24T11:37:01;100427.69;;;21.67;63.23
34237;BME280;20501;45.956;13.632;2023-05-24T11:39:33;100428.91;;;21.77;65.19
34237;BME280;20501;45.956;13.632;2023-05-24T11:41:59;100429.00;;;21.44;65.60
34237;BME280;20501;45.956;13.632;2023-05-24T11:44:29;100426.03;;;21.45;64.06
34237;BME280;20501;45.956;13.632;2023-05-24T11:47:03;100422.50;;;21.90;64.33
34237;BME280;20501;45.956;13.632;2023-05-24T11:49:29;100417.78;;;21.52;64.13
34237;BME280;20501;45.956;13.632;2023-05-24T11:51:56;100412.69;;;21.56;65.81
34237;BME280;20501;45.956;13.632;2023-05-24T11:54:22;100415.56;;;22.20;60.94
34237;BME280;20501;45.956;13.632;2023-05-24T11:56:47;100414.59;;;22.07;60.79
34237;BME280;20501;45.956;13.632;2023-05-24T11:59:21;100405.59;;;22.25;59.32
34237;BME280;20501;45.956;13.632;2023-05-24T12:01:47;100408.59;;;22.24;60.80
34237;BME280;20501;45.956;13.632;2023-05-24T12:04:12;100401.19;;;22.18;57.66
34237;BME280;20501;45.956;13.632;2023-05-24T12:06:39;100392.41;;;22.02;57.99
34237;BME280;20501;45.956;13.632;2023-05-24T12:09:05;100395.25;;;22.21;57.49
34237;BME280;20501;45.956;13.632;2023-05-24T12:11:42;100394.31;;;22.34;56.58
34237;BME280;20501;45.956;13.632;2023-05-24T12:14:12;100387.63;;;21.32;59.71
34237;BME280;20501;45.956;13.632;2023-05-24T12:16:37;100383.28;;;21.56;58.09
34237;BME280;20501;45.956;13.632;2023-05-24T12:19:19;100374.94;;;21.24;60.37
34237;BME280;20501;45.956;13.632;2023-05-24T12:21:46;100372.31;;;21.63;57.91
34237;BME280;20501;45.956;13.632;2023-05-24T12:24:16;100370.00;;;21.99;55.51
34237;BME280;20501;45.956;13.632;2023-05-24T12:26:45;100372.50;;;21.68;57.96
34237;BME280;20501;45.956;13.632;2023-05-24T12:29:10;100361.72;;;21.67;60.48
34237;BME280;20501;45.956;13.632;2023-05-24T12:31:56;100363.81;;;21.71;60.62
34237;BME280;20501;45.956;13.632;2023-05-24T12:34:23;100356.66;;;21.70;61.18
34237;BME280;20501;45.956;13.632;2023-05-24T12:36:48;100357.81;;;21.88;59.86
34237;BME280;20501;45.956;13.632;2023-05-24T12:39:17;100358.50;;;21.76;58.97
34237;BME280;20501;45.956;13.632;2023-05-24T12:41:43;100354.31;;;21.67;62.39
34237;BME280;20501;45.956;13.632;2023-05-24T12:44:10;100356.66;;;22.02;58.21
34237;BME280;20501;45.956;13.632;2023-05-24T12:46:38;100351.66;;;21.92;60.83
34237;BME280;20501;45.956;13.632;2023-05-24T12:49:04;100345.47;;;22.29;58.37
34237;BME280;20501;45.956;13.632;2023-05-24T12:51:30;100343.31;;;21.08;62.14
34237;BME280;20501;45.956;13.632;2023-05-24T12:53:55;100342.75;;;20.25;64.82
34237;BME280;20501;45.956;13.632;2023-05-24T12:56:21;100344.22;;;20.82;64.03